Time;durP1;ratioP1;P1;durP2;ratioP2;P2;SDS_P1;SDS_P2;PMS_P1;PMS_P2;Temp;Humidity;BMP_temperature;BMP_pressure;BME280_temperature;BME280_humidity;BME280_pressure;Samples;Min_cycle;Max_cycle;Signal;HPM_P1;HPM_P2
2021/04/23 00:02:08;;;;;;;7.17;4.80;;;;;;;3.20;68.83;100110.81;233183;1174;115551;-67
2021/04/23 00:07:13;;;;;;;16.53;8.37;;;;;;;3.09;68.41;100116.50;232296;1175;114614;-66
2021/04/23 00:12:16;;;;;;;18.00;7.95;;;;;;;3.08;68.60;100116.67;233572;1174;115398;-66
2021/04/23 00:17:19;;;;;;;15.55;7.45;;;;;;;3.11;68.56;100111.88;234285;1176;115419;-66
2021/04/23 00:22:22;;;;;;;14.40;7.60;;;;;;;3.04;68.55;100114.42;232577;1170;115676;-67
2021/04/23 00:27:26;;;;;;;9.83;6.03;;;;;;;2.94;69.45;100121.73;234487;1174;114987;-65
2021/04/23 00:37:53;;;;;;;11.85;7.05;;;;;;;2.77;69.45;100120.19;233155;1175;116049;-66
2021/04/23 00:42:59;;;;;;;20.25;9.20;;;;;;;2.79;69.61;100120.83;235185;1173;116153;-65
2021/04/23 00:48:06;;;;;;;14.50;6.77;;;;;;;2.74;69.24;100123.20;235137;1170;115961;-66
2021/04/23 00:53:33;;;;;;;13.40;7.43;;;;;;;2.70;69.78;100122.72;235190;1176;116040;-66
2021/04/23 00:58:37;;;;;;;11.03;7.80;;;;;;;2.64;69.74;100122.59;234961;1176;116231;-65
2021/04/23 01:03:46;;;;;;;12.50;6.10;;;;;;;2.59;70.52;100130.19;234943;1174;116127;-64
2021/04/23 01:08:52;;;;;;;12.13;6.43;;;;;;;2.62;70.68;100129.84;234975;1174;115056;-64
2021/04/23 01:13:55;;;;;;;18.70;6.78;;;;;;;2.63;70.01;100129.66;234405;1176;117643;-64
2021/04/23 01:18:59;;;;;;;14.73;7.13;;;;;;;2.60;69.86;100134.45;233683;1176;116042;-64
2021/04/23 01:24:05;;;;;;;15.10;7.17;;;;;;;2.47;70.15;100134.19;234679;1176;116966;-64
2021/04/23 01:29:11;;;;;;;13.85;6.63;;;;;;;2.36;70.30;100136.23;234003;1175;116204;-64
2021/04/23 01:34:42;;;;;;;12.90;7.43;;;;;;;2.35;70.65;100137.22;234058;1176;117247;-64
2021/04/23 01:39:47;;;;;;;10.90;7.27;;;;;;;2.31;70.83;100140.36;232906;1175;116753;-63
2021/04/23 01:44:57;;;;;;;14.23;7.50;;;;;;;2.32;71.26;100142.82;232903;1176;116491;-63
2021/04/23 01:50:01;;;;;;;8.43;5.57;;;;;;;2.33;71.20;100152.36;232562;1175;115820;-64
2021/04/23 01:55:07;;;;;;;10.00;8.00;;;;;;;2.30;71.09;100150.06;233191;1175;115689;-63
2021/04/23 02:00:20;;;;;;;15.10;7.00;;;;;;;2.30;71.71;100147.44;232816;1175;114541;-64
2021/04/23 02:05:25;;;;;;;15.10;8.13;;;;;;;2.23;71.07;100150.91;232531;1175;114826;-63
2021/04/23 02:10:40;;;;;;;14.73;7.33;;;;;;;2.12;71.77;100146.86;233723;1176;117181;-64
2021/04/23 02:15:46;;;;;;;10.77;6.47;;;;;;;1.99;71.44;100152.64;232486;1176;115699;-63
2021/04/23 02:20:51;;;;;;;8.90;6.80;;;;;;;1.94;71.10;100160.22;234494;1175;115352;-63
2021/04/23 02:25:55;;;;;;;10.65;6.85;;;;;;;1.93;71.40;100155.13;234900;1174;114982;-63
2021/04/23 02:31:07;;;;;;;11.35;4.38;;;;;;;1.86;71.87;100162.86;234632;1174;115921;-63
2021/04/23 02:36:14;;;;;;;9.45;6.68;;;;;;;1.80;72.16;100160.10;234945;1174;114570;-64
2021/04/23 02:41:21;;;;;;;13.00;7.30;;;;;;;1.81;71.99;100156.48;235164;1174;114647;-63
2021/04/23 02:46:26;;;;;;;9.40;6.47;;;;;;;1.82;71.74;100161.58;235060;1174;114717;-64
2021/04/23 02:51:33;;;;;;;15.80;8.00;;;;;;;1.82;71.74;100160.76;235099;1174;115132;-64
2021/04/23 02:56:38;;;;;;;8.50;6.30;;;;;;;1.77;71.57;100158.63;235005;1174;114909;-65
2021/04/23 03:01:48;;;;;;;12.00;6.00;;;;;;;1.74;72.37;100155.51;234952;1174;115161;-64
2021/04/23 03:06:52;;;;;;;13.50;6.70;;;;;;;1.79;71.58;100158.46;235112;1174;115143;-64
2021/04/23 03:11:55;;;;;;;14.05;7.25;;;;;;;1.75;72.41;100149.27;235193;1174;114927;-64
2021/04/23 03:16:58;;;;;;;9.78;4.30;;;;;;;1.72;72.22;100155.67;235094;1176;115160;-64
2021/04/23 03:22:03;;;;;;;9.80;5.58;;;;;;;1.61;72.40;100153.38;234048;1174;115292;-64
2021/04/23 03:27:07;;;;;;;18.60;7.10;;;;;;;1.61;71.87;100158.64;233149;1174;115440;-64
2021/04/23 03:32:12;;;;;;;10.30;6.90;;;;;;;1.56;72.40;100166.19;234301;1174;115284;-62
2021/04/23 03:37:16;;;;;;;8.03;5.68;;;;;;;1.53;72.30;100161.30;232485;1176;115235;-63
2021/04/23 03:42:20;;;;;;;12.53;6.87;;;;;;;1.56;72.60;100172.27;233940;1175;115782;-63
2021/04/23 03:47:24;;;;;;;11.48;7.00;;;;;;;1.61;72.25;100177.85;232379;1175;114995;-63
2021/04/23 03:52:28;;;;;;;12.05;7.45;;;;;;;2.34;71.94;100177.67;233483;1174;115441;-63
2021/04/23 03:57:34;;;;;;;7.17;3.83;;;;;;;3.58;71.16;100166.16;232604;1175;117024;-62
2021/04/23 04:02:38;;;;;;;8.47;4.00;;;;;;;4.03;71.17;100179.20;233122;1174;115743;-62
2021/04/23 04:07:43;;;;;;;13.55;5.65;;;;;;;3.63;70.41;100177.80;233420;1174;115376;-62
2021/04/23 04:12:48;;;;;;;4.10;2.60;;;;;;;3.36;71.16;100197.61;232501;1175;115582;-62
2021/04/23 04:17:51;;;;;;;11.40;5.50;;;;;;;3.23;70.51;100196.58;233184;1176;117068;-63
2021/04/23 04:22:56;;;;;;;8.23;6.45;;;;;;;3.16;71.54;100199.09;232607;1174;119176;-63
2021/04/23 04:28:00;;;;;;;14.45;4.60;;;;;;;3.12;70.64;100208.33;233820;1175;114906;-63
2021/04/23 04:33:04;;;;;;;12.70;6.13;;;;;;;3.10;71.03;100209.50;233552;1174;116189;-63
2021/04/23 04:38:10;;;;;;;9.53;6.23;;;;;;;3.18;71.16;100218.18;233195;1175;116165;-63
2021/04/23 04:43:16;;;;;;;12.45;8.70;;;;;;;3.29;71.24;100224.87;232644;1170;115862;-64
2021/04/23 04:48:19;;;;;;;12.83;7.73;;;;;;;3.48;72.02;100229.66;234663;1176;115476;-64
2021/04/23 04:53:23;;;;;;;14.30;9.75;;;;;;;3.60;71.15;100227.42;235179;1176;117403;-64
2021/04/23 04:58:33;;;;;;;15.53;10.13;;;;;;;3.73;71.94;100230.27;235170;1175;116028;-64
2021/04/23 05:03:38;;;;;;;14.28;8.40;;;;;;;3.86;71.17;100234.94;234927;1175;116777;-65
2021/04/23 05:08:42;;;;;;;15.85;8.45;;;;;;;4.05;71.72;100229.14;234901;1174;117399;-64
2021/04/23 05:13:47;;;;;;;10.75;8.05;;;;;;;4.33;70.67;100230.16;234915;1176;117727;-64
2021/04/23 05:18:51;;;;;;;10.00;7.83;;;;;;;5.32;70.24;100241.08;234895;1175;116327;-65
2021/04/23 05:23:55;;;;;;;13.85;8.60;;;;;;;7.00;67.51;100239.19;234183;1175;116938;-65
2021/04/23 05:28:59;;;;;;;10.85;6.85;;;;;;;7.87;67.83;100241.77;232713;1174;116730;-64
2021/04/23 05:34:03;;;;;;;15.63;6.15;;;;;;;9.13;65.72;100241.45;234291;1174;117077;-65
2021/04/23 05:39:06;;;;;;;13.30;6.37;;;;;;;9.43;65.17;100237.17;235175;1174;115596;-66
2021/04/23 05:44:10;;;;;;;14.88;7.55;;;;;;;8.81;64.41;100246.70;235115;1174;115264;-68
2021/04/23 05:49:14;;;;;;;12.88;6.80;;;;;;;8.43;64.97;100249.27;233489;1174;115697;-65
2021/04/23 05:54:18;;;;;;;8.18;5.83;;;;;;;8.23;64.37;100249.30;235014;1174;117514;-66
2021/04/23 05:59:24;;;;;;;15.65;5.93;;;;;;;7.93;64.60;100264.02;235118;1176;115265;-65
2021/04/23 06:04:26;;;;;;;8.30;6.47;;;;;;;7.89;64.81;100260.95;234190;1172;115045;-65
2021/04/23 06:09:29;;;;;;;10.30;7.80;;;;;;;7.87;64.90;100270.14;233506;1174;116261;-66
2021/04/23 06:14:32;;;;;;;14.68;8.60;;;;;;;7.83;64.50;100263.61;233301;1173;115190;-65
2021/04/23 06:19:36;;;;;;;13.17;8.73;;;;;;;7.70;65.56;100253.78;234034;1174;115481;-65
2021/04/23 06:24:38;;;;;;;11.13;8.18;;;;;;;7.60;65.19;100253.39;232852;1174;115239;-66
2021/04/23 06:29:41;;;;;;;9.78;6.70;;;;;;;7.56;65.24;100252.98;233815;1174;116373;-65
2021/04/23 06:34:45;;;;;;;9.80;6.23;;;;;;;7.52;65.32;100256.23;233066;1174;115717;-65
2021/04/23 06:39:48;;;;;;;8.10;5.73;;;;;;;7.61;65.21;100249.72;232807;1174;118394;-64
2021/04/23 06:44:52;;;;;;;34.90;8.53;;;;;;;8.02;65.41;100260.94;233870;1174;115907;-64
2021/04/23 06:49:55;;;;;;;10.70;7.95;;;;;;;8.54;64.67;100255.80;233484;1174;116152;-67
2021/04/23 06:54:59;;;;;;;6.90;5.20;;;;;;;9.50;63.94;100256.55;233825;1174;115095;-67
2021/04/23 07:00:05;;;;;;;7.88;4.30;;;;;;;10.86;61.68;100247.73;234367;1174;115939;-67
2021/04/23 07:05:10;;;;;;;8.00;4.73;;;;;;;11.58;61.06;100244.08;235001;1176;115383;-66
2021/04/23 07:10:17;;;;;;;7.15;5.38;;;;;;;12.19;60.01;100242.90;234906;1175;115041;-66
2021/04/23 07:15:21;;;;;;;;;;;;;;;12.21;58.42;100243.48;235073;1174;115088;-66
2021/04/23 07:20:26;;;;;;;10.10;4.73;;;;;;;11.74;58.38;100238.06;235754;1174;103423;-66
2021/04/23 07:25:30;;;;;;;8.33;5.10;;;;;;;11.33;58.45;100248.73;234895;1174;115353;-65
2021/04/23 07:30:35;;;;;;;11.10;7.10;;;;;;;10.35;58.02;100264.92;234917;1174;115700;-64
2021/04/23 07:35:40;;;;;;;8.83;7.10;;;;;;;9.89;58.76;100262.63;234996;1174;115547;-64
2021/04/23 07:40:44;;;;;;;8.13;5.10;;;;;;;9.40;59.64;100270.34;234310;1174;114707;-66
2021/04/23 07:45:48;;;;;;;18.43;7.25;;;;;;;9.60;60.83;100269.39;234215;1174;115627;-66
2021/04/23 07:50:53;;;;;;;7.03;5.50;;;;;;;9.78;59.71;100272.93;234085;1174;115647;-67
2021/04/23 07:55:56;;;;;;;14.90;5.97;;;;;;;10.46;60.49;100274.83;232878;1174;115308;-66
2021/04/23 08:01:00;;;;;;;16.83;5.57;;;;;;;10.77;59.53;100277.36;233199;1169;115252;-66
2021/04/23 08:06:05;;;;;;;11.10;5.55;;;;;;;10.72;59.61;100279.06;234106;1174;115704;-66
2021/04/23 08:11:27;;;;;;;8.38;5.18;;;;;;;10.38;58.67;100283.14;232691;1170;115847;-66
2021/04/23 08:16:31;;;;;;;8.20;4.15;;;;;;;10.43;59.44;100284.08;234606;1174;116011;-66
2021/04/23 08:21:34;;;;;;;15.50;5.63;;;;;;;10.08;58.78;100274.98;233070;1174;117089;-67
2021/04/23 08:26:38;;;;;;;5.08;4.63;;;;;;;10.40;59.61;100270.38;234436;1175;117637;-66
2021/04/23 08:31:44;;;;;;;8.00;4.00;;;;;;;10.62;59.21;100265.45;232715;1176;115871;-65
2021/04/23 08:36:48;;;;;;;8.13;5.38;;;;;;;10.84;59.08;100274.63;232468;1175;115600;-65
2021/04/23 08:41:51;;;;;;;5.67;4.33;;;;;;;11.31;58.12;100280.20;235098;1174;115431;-66
2021/04/23 08:46:54;;;;;;;8.15;3.98;;;;;;;11.78;57.11;100270.50;235075;1171;116121;-66
2021/04/23 08:52:00;;;;;;;7.23;3.43;;;;;;;12.04;55.80;100269.25;234885;1174;115226;-64
2021/04/23 08:57:05;;;;;;;4.75;2.83;;;;;;;11.93;54.63;100272.72;235076;1174;115662;-65
2021/04/23 09:02:09;;;;;;;5.43;2.50;;;;;;;12.26;54.79;100274.83;234978;1175;114945;-65
2021/04/23 09:07:13;;;;;;;3.90;3.53;;;;;;;12.31;53.72;100278.44;234924;1170;115648;-64
2021/04/23 09:12:20;;;;;;;2.90;2.63;;;;;;;12.06;52.65;100276.00;235013;1171;115238;-65
2021/04/23 09:17:28;;;;;;;6.13;2.88;;;;;;;12.04;52.19;100264.72;235031;1174;115697;-65
2021/04/23 09:22:32;;;;;;;4.00;2.63;;;;;;;11.73;51.51;100273.82;235067;1171;116405;-63
2021/04/23 09:27:37;;;;;;;7.28;2.50;;;;;;;11.65;50.75;100263.46;235054;1174;115277;-66
2021/04/23 09:32:42;;;;;;;4.10;1.90;;;;;;;11.59;51.43;100253.72;234912;1170;115662;-64
2021/04/23 09:37:52;;;;;;;2.10;1.87;;;;;;;11.44;50.58;100248.79;235051;1174;115882;-67
2021/04/23 09:43:06;;;;;;;1.48;1.30;;;;;;;11.27;50.57;100263.02;234998;1176;115750;-65
2021/04/23 09:48:18;;;;;;;3.20;1.90;;;;;;;11.25;50.43;100247.23;234140;1167;115872;-66
2021/04/23 09:53:32;;;;;;;4.17;1.63;;;;;;;12.12;50.23;100231.50;232078;1175;115855;-66
2021/04/23 09:58:35;;;;;;;4.25;2.15;;;;;;;12.43;49.53;100238.34;232301;1171;115575;-67
2021/04/23 10:03:37;;;;;;;2.80;1.80;;;;;;;11.91;48.31;100240.10;234207;1174;115723;-67
2021/04/23 10:08:41;;;;;;;3.37;2.10;;;;;;;11.44;47.69;100247.98;233805;1174;116309;-68
2021/04/23 10:13:44;;;;;;;7.63;4.25;;;;;;;10.77;47.98;100273.88;232756;1172;115228;-68
2021/04/23 10:18:47;;;;;;;1.37;1.37;;;;;;;9.87;48.94;100289.47;231858;1174;115319;-67
2021/04/23 10:23:50;;;;;;;2.65;1.40;;;;;;;9.07;50.89;100341.51;232462;1176;115359;-65
2021/04/23 10:28:53;;;;;;;1.80;1.70;;;;;;;8.47;52.15;100361.27;235044;1174;115134;-66
2021/04/23 10:33:56;;;;;;;3.10;2.10;;;;;;;8.19;53.43;100353.48;231861;1167;114961;-66
2021/04/23 10:39:00;;;;;;;1.75;1.65;;;;;;;7.97;54.84;100343.03;231917;1175;115092;-68
2021/04/23 10:44:05;;;;;;;4.48;1.68;;;;;;;8.06;55.36;100307.30;233241;1176;115267;-67
2021/04/23 10:49:09;;;;;;;2.35;1.70;;;;;;;8.61;56.46;100283.14;232288;1170;115881;-67
2021/04/23 10:54:16;;;;;;;4.15;1.90;;;;;;;9.23;57.12;100287.00;234367;1170;114838;-68
2021/04/23 10:59:31;;;;;;;1.45;1.35;;;;;;;9.81;55.82;100271.69;232724;1175;114988;-70
2021/04/23 11:04:56;;;;;;;2.70;1.75;;;;;;;10.17;55.47;100284.30;232972;1174;114520;-68
2021/04/23 11:10:05;;;;;;;1.73;1.30;;;;;;;10.44;54.71;100290.23;232407;1174;116013;-68
2021/04/23 11:15:16;;;;;;;4.33;1.90;;;;;;;10.69;53.81;100290.20;233059;1174;115994;-70
2021/04/23 11:20:26;;;;;;;2.68;1.43;;;;;;;10.71;53.57;100290.77;234985;1175;115547;-66
2021/04/23 11:25:28;;;;;;;1.60;1.50;;;;;;;10.36;52.39;100291.35;235130;1176;116241;-67
2021/04/23 11:30:53;;;;;;;2.87;1.97;;;;;;;10.35;51.75;100308.38;234889;1175;117074;-65
2021/04/23 11:36:22;;;;;;;3.13;2.60;;;;;;;9.93;51.72;100314.42;235123;1176;115013;-69
2021/04/23 11:41:26;;;;;;;2.10;1.97;;;;;;;9.79;52.42;100309.18;234958;1176;117214;-68
2021/04/23 11:46:53;;;;;;;2.85;2.05;;;;;;;10.02;52.05;100305.14;232291;1175;115264;-65
2021/04/23 11:52:01;;;;;;;1.73;1.33;;;;;;;9.94;52.39;100294.75;234996;1174;115326;-67
2021/04/23 11:57:07;;;;;;;1.80;1.45;;;;;;;10.32;52.85;100294.67;234964;1174;114952;-65
2021/04/23 12:02:10;;;;;;;1.68;1.53;;;;;;;10.68;53.03;100296.56;232624;1171;115354;-66
2021/04/23 12:07:14;;;;;;;3.90;1.80;;;;;;;11.16;52.90;100299.27;233020;1174;116314;-69
2021/04/23 12:12:17;;;;;;;2.43;1.70;;;;;;;11.38;52.16;100291.59;233248;1171;115217;-70
2021/04/23 12:17:19;;;;;;;5.08;2.43;;;;;;;10.78;51.62;100366.18;231896;1175;115703;-69
2021/04/23 12:22:22;;;;;;;10.38;3.58;;;;;;;9.73;52.57;100370.48;232025;1170;115633;-66
2021/04/23 12:27:26;;;;;;;2.75;1.90;;;;;;;8.76;53.71;100371.45;232081;1175;115430;-67
2021/04/23 12:32:29;;;;;;;2.00;1.55;;;;;;;8.44;56.25;100363.31;234134;1177;115623;-67
2021/04/23 12:37:32;;;;;;;1.85;1.75;;;;;;;8.34;57.54;100349.61;232028;1176;115545;-68
2021/04/23 12:42:35;;;;;;;13.33;2.65;;;;;;;8.18;57.88;100367.78;233466;1167;115418;-66
2021/04/23 12:47:38;;;;;;;4.70;1.40;;;;;;;8.13;58.14;100381.66;233087;1176;115895;-68
2021/04/23 12:52:45;;;;;;;4.08;2.23;;;;;;;8.16;58.50;100383.91;231946;1176;115186;-68
2021/04/23 12:57:48;;;;;;;4.23;2.40;;;;;;;8.17;59.18;100377.58;234756;1177;115644;-66
2021/04/23 13:02:56;;;;;;;2.50;2.10;;;;;;;8.16;58.58;100375.95;234999;1174;115452;-69
2021/04/23 13:08:03;;;;;;;2.50;2.30;;;;;;;8.32;58.19;100391.50;232603;1176;115467;-67
2021/04/23 13:13:21;;;;;;;8.05;3.63;;;;;;;8.42;57.74;100380.47;235073;1174;116141;-69
2021/04/23 13:18:27;;;;;;;3.43;2.63;;;;;;;8.21;58.34;100380.66;234974;1174;115116;-68
2021/04/23 13:23:40;;;;;;;3.53;3.10;;;;;;;8.22;58.35;100377.80;234878;1176;115386;-64
2021/04/23 13:28:53;;;;;;;6.18;3.35;;;;;;;8.41;59.08;100369.03;234875;1174;114900;-65
2021/04/23 13:34:14;;;;;;;5.75;2.83;;;;;;;8.68;59.04;100363.69;234900;1175;115591;-65
2021/04/23 13:39:17;;;;;;;3.87;2.83;;;;;;;9.04;58.82;100352.56;235103;1170;115089;-66
2021/04/23 13:44:22;;;;;;;5.63;3.45;;;;;;;9.39;57.94;100345.88;235162;1176;116370;-66
2021/04/23 13:49:32;;;;;;;8.83;3.90;;;;;;;9.73;57.81;100352.66;235126;1174;115919;-67
2021/04/23 13:54:36;;;;;;;3.93;2.43;;;;;;;9.86;57.43;100361.58;234994;1174;115899;-67
2021/04/23 13:59:41;;;;;;;2.75;2.40;;;;;;;9.83;55.66;100368.14;234961;1175;117104;-67
2021/04/23 14:04:46;;;;;;;4.17;3.17;;;;;;;9.77;56.17;100385.00;234938;1175;115707;-66
2021/04/23 14:09:52;;;;;;;1.98;1.88;;;;;;;9.55;55.88;100403.11;234867;1174;116906;-66
2021/04/23 14:14:56;;;;;;;1.90;1.67;;;;;;;9.58;55.86;100405.35;235173;1175;116115;-67
2021/04/23 14:19:59;;;;;;;2.08;1.40;;;;;;;9.59;55.14;100392.86;235010;1176;115714;-66
2021/04/23 14:25:03;;;;;;;3.30;2.33;;;;;;;9.50;54.31;100402.92;235020;1175;116653;-66
2021/04/23 14:30:08;;;;;;;4.53;1.97;;;;;;;9.44;55.03;100395.81;234912;1175;116456;-67
2021/04/23 14:35:11;;;;;;;2.20;1.55;;;;;;;9.32;54.61;100394.81;234907;1174;115932;-66
2021/04/23 14:40:15;;;;;;;7.93;1.40;;;;;;;9.28;55.00;100397.08;234921;1176;118029;-66
2021/04/23 14:45:18;;;;;;;6.67;3.40;;;;;;;8.99;54.99;100406.37;235015;1174;117230;-66
2021/04/23 14:50:22;;;;;;;4.33;1.57;;;;;;;8.71;54.35;100403.14;235011;1176;115844;-68
2021/04/23 15:06:15;;;;;;;1.40;1.20;;;;;;;7.85;54.84;100402.23;238879;1165;102998;-65
2021/04/23 15:11:18;;;;;;;4.20;2.17;;;;;;;7.91;56.36;100388.99;233694;1173;116055;-66
2021/04/23 15:16:21;;;;;;;3.00;1.90;;;;;;;8.30;55.79;100395.34;233273;1173;118300;-66
2021/04/23 15:21:25;;;;;;;2.63;2.30;;;;;;;8.26;55.15;100380.83;232500;1174;116047;-66
2021/04/23 15:26:29;;;;;;;2.23;1.93;;;;;;;8.29;55.64;100377.77;234440;1173;116198;-68
2021/04/23 15:31:34;;;;;;;3.03;1.53;;;;;;;8.17;56.30;100390.05;235213;1174;116020;-68
2021/04/23 15:36:37;;;;;;;2.85;2.20;;;;;;;8.14;56.43;100383.30;235505;1174;117281;-65
2021/04/23 15:41:39;;;;;;;4.20;3.55;;;;;;;8.26;56.04;100379.00;235282;1173;115395;-68
2021/04/23 15:46:46;;;;;;;3.05;2.28;;;;;;;8.33;56.67;100382.51;235207;1173;115836;-66
2021/04/23 15:51:50;;;;;;;5.53;2.63;;;;;;;8.25;55.31;100385.36;235413;1173;116111;-67
2021/04/23 15:56:54;;;;;;;4.63;3.10;;;;;;;8.15;56.59;100384.93;235393;1173;115635;-64
2021/04/23 16:01:57;;;;;;;2.00;1.83;;;;;;;8.09;56.20;100377.77;235321;1173;115687;-64
2021/04/23 16:07:00;;;;;;;6.67;2.23;;;;;;;8.00;56.43;100386.94;235291;1174;115343;-66
2021/04/23 16:12:05;;;;;;;6.77;3.43;;;;;;;7.90;56.06;100392.66;234205;1173;116790;-64
2021/04/23 16:17:08;;;;;;;7.77;3.70;;;;;;;7.87;55.94;100397.55;233835;1174;115741;-66
2021/04/23 16:22:11;;;;;;;2.35;1.58;;;;;;;7.88;55.80;100412.45;232612;1174;116631;-64
2021/04/23 16:27:15;;;;;;;5.17;2.67;;;;;;;7.65;56.67;100402.16;234505;1174;115742;-66
2021/04/23 16:32:18;;;;;;;2.40;1.30;;;;;;;7.37;57.29;100397.78;234101;1174;115566;-64
2021/04/23 16:37:21;;;;;;;3.53;2.13;;;;;;;7.08;57.46;100401.52;234391;1174;115522;-64
2021/04/23 16:42:24;;;;;;;5.68;2.40;;;;;;;6.80;58.69;100408.69;233008;1174;116085;-67
2021/04/23 16:47:28;;;;;;;6.15;2.75;;;;;;;6.56;58.74;100403.83;232126;1174;116153;-69
2021/04/23 16:52:31;;;;;;;2.57;2.33;;;;;;;6.49;59.50;100392.36;232380;1174;116882;-63
2021/04/23 16:57:34;;;;;;;5.08;1.53;;;;;;;6.40;59.94;100395.17;232454;1174;115423;-64
2021/04/23 17:02:36;;;;;;;2.78;2.48;;;;;;;6.28;60.03;100407.27;232319;1174;116201;-64
2021/04/23 17:07:40;;;;;;;3.23;2.93;;;;;;;6.21;60.40;100405.56;233875;1174;114828;-66
2021/04/23 17:12:43;;;;;;;5.10;2.80;;;;;;;6.24;60.39;100403.36;232877;1174;114615;-64
2021/04/23 17:17:46;;;;;;;11.37;5.00;;;;;;;6.35;60.70;100416.09;234551;1174;115225;-64
2021/04/23 17:22:52;;;;;;;5.50;4.55;;;;;;;6.36;60.59;100420.39;235219;1173;115189;-64
2021/04/23 17:27:55;;;;;;;7.67;4.60;;;;;;;6.34;60.90;100422.41;233025;1173;115543;-65
2021/04/23 17:33:01;;;;;;;9.50;4.68;;;;;;;6.34;61.53;100437.47;232222;1174;116321;-63
2021/04/23 17:38:19;;;;;;;4.15;3.05;;;;;;;6.29;61.42;100456.57;235289;1174;115514;-65
2021/04/23 17:43:23;;;;;;;4.17;2.77;;;;;;;6.28;61.48;100465.52;235284;1173;117472;-66
2021/04/23 17:48:27;;;;;;;7.07;3.63;;;;;;;6.24;61.27;100453.66;235451;1168;116116;-64
2021/04/23 17:53:31;;;;;;;5.90;2.73;;;;;;;6.13;61.85;100462.09;235399;1174;116433;-65
2021/04/23 17:58:34;;;;;;;7.93;3.18;;;;;;;6.04;61.93;100458.77;235246;1173;115611;-65
2021/04/23 18:03:37;;;;;;;4.43;2.17;;;;;;;6.04;61.90;100464.06;235103;1174;115937;-64
2021/04/23 18:08:44;;;;;;;9.47;5.73;;;;;;;5.97;62.19;100463.16;235304;1167;117202;-65
2021/04/23 18:13:49;;;;;;;5.53;3.97;;;;;;;5.83;62.30;100463.16;234100;1174;116323;-65
2021/04/23 18:18:57;;;;;;;5.70;4.20;;;;;;;5.72;62.27;100467.12;233601;1175;117138;-65
2021/04/23 18:24:01;;;;;;;4.25;3.40;;;;;;;5.53;62.57;100479.07;234263;1174;116210;-64
2021/04/23 18:29:05;;;;;;;11.00;4.00;;;;;;;5.36;62.90;100491.67;235707;1174;114426;-65
2021/04/23 18:34:09;;;;;;;5.78;3.25;;;;;;;5.21;63.38;100484.73;233437;1174;115957;-66
2021/04/23 18:39:14;;;;;;;4.68;3.03;;;;;;;5.08;63.48;100488.84;233470;1174;114545;-65
2021/04/23 18:44:19;;;;;;;4.28;3.80;;;;;;;4.91;64.26;100486.52;232720;1174;114835;-64
2021/04/23 18:49:22;;;;;;;5.08;2.35;;;;;;;4.63;64.36;100500.30;233173;1174;115625;-64
2021/04/23 18:54:26;;;;;;;4.88;2.45;;;;;;;4.40;63.84;100487.11;232312;1173;114161;-65
2021/04/23 18:59:29;;;;;;;8.73;3.60;;;;;;;4.25;64.90;100488.89;232326;1174;116899;-63
2021/04/23 19:04:33;;;;;;;5.07;3.00;;;;;;;4.12;64.92;100493.09;233514;1174;116461;-63
2021/04/23 19:09:37;;;;;;;10.30;4.00;;;;;;;3.98;65.67;100499.91;233270;1173;116870;-64
2021/04/23 19:14:41;;;;;;;10.75;3.75;;;;;;;3.92;66.32;100503.27;232700;1173;114972;-63
2021/04/23 19:19:43;;;;;;;3.90;2.60;;;;;;;3.80;67.02;100502.00;233526;1174;115579;-67
2021/04/23 19:24:49;;;;;;;4.75;2.85;;;;;;;3.83;67.03;100496.38;234182;1174;114524;-64
2021/04/23 19:29:53;;;;;;;6.95;4.15;;;;;;;3.89;67.35;100493.06;234987;1174;114001;-64
2021/04/23 19:34:59;;;;;;;8.60;3.90;;;;;;;4.01;67.55;100492.47;234768;1174;115946;-64
2021/04/23 19:40:08;;;;;;;7.23;4.33;;;;;;;4.10;68.61;100493.26;235033;1173;115041;-64
2021/04/23 19:45:13;;;;;;;6.45;4.00;;;;;;;4.14;67.86;100489.28;234516;1174;115019;-64
2021/04/23 19:50:16;;;;;;;5.83;4.43;;;;;;;4.17;67.85;100482.83;234996;1174;114906;-64
2021/04/23 19:55:21;;;;;;;7.80;5.67;;;;;;;4.17;68.76;100490.75;235047;1174;114473;-64
2021/04/23 20:00:25;;;;;;;9.37;4.90;;;;;;;4.22;68.82;100502.43;235092;1174;114442;-65
2021/04/23 20:05:29;;;;;;;7.17;4.90;;;;;;;4.31;68.23;100496.08;235059;1174;114266;-65
2021/04/23 20:10:33;;;;;;;12.27;5.33;;;;;;;4.33;68.16;100501.19;234989;1174;115054;-64
2021/04/23 20:15:37;;;;;;;4.38;3.93;;;;;;;4.22;68.36;100489.23;235029;1167;114582;-64
2021/04/23 20:20:42;;;;;;;9.37;6.43;;;;;;;4.16;68.81;100495.20;234719;1174;115140;-65
2021/04/23 20:25:47;;;;;;;10.15;6.33;;;;;;;4.12;69.44;100506.28;233055;1174;114784;-64
2021/04/23 20:30:52;;;;;;;6.77;5.33;;;;;;;4.07;69.15;100504.16;234083;1174;115645;-64
2021/04/23 20:35:55;;;;;;;12.95;6.60;;;;;;;4.06;69.25;100497.23;233946;1174;115537;-64
2021/04/23 20:41:00;;;;;;;12.18;5.53;;;;;;;4.07;69.12;100490.97;233033;1174;115576;-64
2021/04/23 20:46:05;;;;;;;8.13;6.33;;;;;;;4.09;68.98;100499.53;232602;1173;115634;-63
2021/04/23 20:51:09;;;;;;;6.75;4.45;;;;;;;4.07;70.06;100496.23;233934;1173;115107;-63
2021/04/23 20:56:14;;;;;;;11.57;6.17;;;;;;;4.02;69.26;100499.39;233017;1174;115010;-65
2021/04/23 21:01:18;;;;;;;15.85;6.98;;;;;;;4.04;69.55;100496.59;232867;1174;117340;-63
2021/04/23 21:06:22;;;;;;;17.13;7.40;;;;;;;4.10;69.46;100495.08;232764;1174;116026;-64
2021/04/23 21:11:27;;;;;;;16.53;10.00;;;;;;;4.07;69.51;100496.23;233234;1174;115824;-64
2021/04/23 21:16:32;;;;;;;12.00;6.43;;;;;;;4.00;69.85;100490.01;232955;1174;116138;-65
2021/04/23 21:21:38;;;;;;;13.05;7.15;;;;;;;3.89;69.67;100496.52;232911;1173;115371;-63
2021/04/23 21:26:44;;;;;;;11.87;7.60;;;;;;;3.77;69.47;100494.42;233886;1174;115105;-63
2021/04/23 21:31:49;;;;;;;;;;;;;;;3.69;69.90;100490.83;233025;1174;115408;-62
2021/04/23 21:36:55;;;;;;;11.98;8.00;;;;;;;3.62;69.50;100491.70;234675;1173;102980;-63
2021/04/23 21:42:01;;;;;;;8.17;5.77;;;;;;;3.59;70.47;100489.41;234192;1173;116796;-63
2021/04/23 21:47:07;;;;;;;9.37;6.53;;;;;;;3.55;70.21;100491.56;235480;1174;116280;-63
2021/04/23 21:52:11;;;;;;;15.07;6.47;;;;;;;3.53;69.93;100500.63;234812;1173;116784;-64
2021/04/23 21:57:15;;;;;;;13.07;6.37;;;;;;;3.53;69.65;100495.36;235429;1174;116575;-63
2021/04/23 22:02:19;;;;;;;13.00;7.15;;;;;;;3.54;69.29;100502.27;235461;1167;115695;-64
2021/04/23 22:07:24;;;;;;;16.08;7.25;;;;;;;3.54;69.21;100505.73;235440;1174;114714;-64
2021/04/23 22:12:28;;;;;;;11.90;7.80;;;;;;;3.53;70.30;100505.90;235171;1174;114842;-64
2021/04/23 22:17:32;;;;;;;19.93;9.20;;;;;;;3.51;70.45;100506.06;234729;1174;115168;-63
2021/04/23 22:22:37;;;;;;;11.68;7.18;;;;;;;3.45;70.26;100505.92;234193;1174;115013;-64
2021/04/23 22:27:41;;;;;;;9.13;5.67;;;;;;;3.35;70.31;100500.86;233158;1174;115326;-66
2021/04/23 22:32:45;;;;;;;10.73;5.70;;;;;;;3.28;69.99;100497.25;233515;1167;114970;-64
2021/04/23 22:37:49;;;;;;;12.13;7.10;;;;;;;3.18;70.36;100492.16;232707;1173;114474;-63
2021/04/23 22:42:53;;;;;;;12.05;6.75;;;;;;;3.10;69.70;100494.80;233317;1173;115157;-64
2021/04/23 22:47:58;;;;;;;13.28;5.95;;;;;;;3.00;70.45;100495.01;232425;1174;115362;-63
2021/04/23 22:53:03;;;;;;;12.43;6.00;;;;;;;2.92;70.39;100489.75;232655;1174;115648;-63
2021/04/23 22:58:07;;;;;;;15.90;7.00;;;;;;;2.84;70.06;100487.11;233782;1174;115301;-64
2021/04/23 23:03:12;;;;;;;16.30;6.57;;;;;;;2.79;70.87;100486.78;233686;1174;115332;-64
2021/04/23 23:08:16;;;;;;;15.35;7.50;;;;;;;2.76;69.90;100487.11;232427;1174;115413;-63
2021/04/23 23:13:20;;;;;;;13.15;7.05;;;;;;;2.73;70.39;100489.28;233464;1174;114967;-65
2021/04/23 23:18:24;;;;;;;10.53;6.43;;;;;;;2.66;70.00;100492.57;233515;1174;136469;-63
2021/04/23 23:23:31;;;;;;;12.85;6.88;;;;;;;2.55;69.69;100484.17;233326;1168;115557;-63
2021/04/23 23:28:35;;;;;;;13.83;5.77;;;;;;;2.47;69.69;100481.53;233897;1173;115212;-63
2021/04/23 23:33:40;;;;;;;12.97;7.40;;;;;;;2.39;70.34;100484.17;233304;1174;115404;-63